Weather at Atwood Airport [CLOSED]

Public forecast

Using degrees Celsius for public forecast. Weather courtesy of forecast.io.

Closest aviation weather report (METAR) to Atwood Airport

Closest report is Waterloo Airport, 30.5 nm (56.6 km) ESE. Retrieved 2021/06/24 18:00 UTC (26 minutes ago):

CYKF 241800Z AUTO 19014G23KT 9SM CLR 27/10 A3011 RMK SLP195 DENSITY ALT 2500FT

Closest aviation forecast (TAF) to Atwood Airport

Closest forecast is Waterloo Airport, 30.5 nm (56.6 km) ESE. Retrieved 2021/06/24 14:39 UTC (4 hours ago):

TAF CYKF 241338Z 2414/2502 21012KT P6SM SCT100 BECMG 2414/2416 19015G25KT FM242200 19015G25KT P6SM BKN100 TEMPO 2422/2502 P6SM -SHRA BECMG 2500/2502 20012KT RMK FCST BASED ON AUTO OBS NXT FCST BY 242000Z